createdAt,value
2017-04-20T00:00:33.550Z,2.59
2017-04-20T00:01:42.446Z,2.61
2017-04-20T00:02:51.356Z,2.56
2017-04-20T00:04:00.236Z,2.54
2017-04-20T00:05:09.113Z,2.49
2017-04-20T00:06:18.013Z,2.46
2017-04-20T00:07:27.224Z,2.42
2017-04-20T00:08:36.113Z,2.52
2017-04-20T00:09:45.650Z,2.56
2017-04-20T00:10:54.535Z,2.57
2017-04-20T00:12:03.515Z,2.54
2017-04-20T00:13:12.722Z,2.49
2017-04-20T00:14:22.257Z,2.46
2017-04-20T00:15:31.798Z,2.42
2017-04-20T00:16:41.007Z,2.41
2017-04-20T00:17:50.592Z,2.28
2017-04-20T00:18:59.800Z,2.31
2017-04-20T00:20:09.180Z,2.28
2017-04-20T00:21:18.216Z,2.28
2017-04-20T00:22:27.099Z,2.27
2017-04-20T00:23:36.271Z,2.21
2017-04-20T00:24:46.526Z,2.23
2017-04-20T00:25:55.405Z,2.21
2017-04-20T00:27:04.608Z,2.21
2017-04-20T00:28:13.491Z,2.16
2017-04-20T00:29:22.848Z,2.17
2017-04-20T00:30:32.383Z,2.2
2017-04-20T00:31:41.269Z,2.18
2017-04-20T00:32:50.475Z,2.1
2017-04-20T00:34:00.011Z,2.17
2017-04-20T00:35:08.946Z,2.1
2017-04-20T00:36:18.150Z,2.16
2017-04-20T00:37:27.362Z,2.1
2017-04-20T00:38:36.589Z,2.1
2017-04-20T00:39:45.467Z,2.14
2017-04-20T00:40:54.648Z,2.12
2017-04-20T00:42:03.526Z,2.05
2017-04-20T00:43:12.434Z,2.05
2017-04-20T00:44:21.644Z,2.06
2017-04-20T00:45:30.523Z,2.06
2017-04-20T00:46:39.779Z,2.07
2017-04-20T00:47:48.986Z,2.07
2017-04-20T00:48:58.524Z,2.02
2017-04-20T00:50:07.458Z,2
2017-04-20T00:51:16.339Z,2.1
2017-04-20T00:52:25.700Z,2.03
2017-04-20T00:53:34.905Z,2.06
2017-04-20T00:54:44.432Z,1.93
2017-04-20T00:55:53.636Z,1.99
2017-04-20T00:57:02.523Z,1.93
2017-04-20T00:58:11.551Z,1.9
2017-04-20T00:59:20.426Z,1.93
2017-04-20T01:00:29.305Z,1.93
2017-04-20T01:01:38.192Z,1.9
2017-04-20T01:02:47.081Z,1.84
2017-04-20T01:03:56.065Z,1.99
2017-04-20T01:05:05.922Z,1.84
2017-04-20T01:06:14.942Z,1.81
2017-04-20T01:07:24.583Z,1.86
2017-04-20T01:08:33.462Z,1.83
2017-04-20T01:09:42.637Z,1.77
2017-04-20T01:10:51.840Z,1.79
2017-04-20T01:12:00.822Z,1.77
2017-04-20T01:13:09.703Z,1.77
2017-04-20T01:14:18.583Z,1.7
2017-04-20T01:15:27.888Z,1.7
2017-04-20T01:16:37.095Z,1.79
2017-04-20T01:17:45.979Z,1.73
2017-04-20T01:18:54.857Z,1.68
2017-04-20T01:20:03.733Z,1.73
2017-04-20T01:21:13.090Z,1.68
2017-04-20T01:22:21.970Z,1.62
2017-04-20T01:23:31.175Z,1.62
2017-04-20T01:24:40.376Z,1.6
2017-04-20T01:25:49.586Z,1.66
2017-04-20T01:26:58.994Z,1.55
2017-04-20T01:28:08.199Z,1.6
2017-04-20T01:29:17.416Z,1.58
2017-04-20T01:30:26.337Z,1.55
2017-04-20T01:31:35.215Z,1.52
2017-04-20T01:32:44.368Z,1.45
2017-04-20T01:33:53.255Z,1.48
2017-04-20T01:35:02.147Z,1.47
2017-04-20T01:36:11.351Z,1.48
2017-04-20T01:37:20.228Z,1.51
2017-04-20T01:38:29.103Z,1.54
2017-04-20T01:39:37.984Z,1.47
2017-04-20T01:40:47.188Z,1.54
2017-04-20T01:41:56.396Z,1.47
2017-04-20T01:43:05.281Z,1.44
2017-04-20T01:44:14.607Z,1.41
2017-04-20T01:45:23.490Z,1.47
2017-04-20T01:46:32.697Z,1.4
2017-04-20T01:47:41.587Z,1.4
2017-04-20T01:48:50.807Z,1.37
2017-04-20T01:50:00.494Z,1.32
2017-04-20T01:51:09.376Z,1.33
2017-04-20T01:52:18.578Z,1.36
2017-04-20T01:53:28.108Z,1.3
2017-04-20T01:54:36.985Z,1.27
2017-04-20T01:55:46.666Z,1.3
2017-04-20T01:56:55.689Z,1.27
2017-04-20T01:58:05.458Z,1.24
2017-04-20T01:59:15.320Z,1.26
2017-04-20T02:00:24.889Z,1.3
2017-04-20T02:01:34.022Z,1.26
2017-04-20T02:02:43.228Z,1.23
2017-04-20T02:03:52.437Z,1.15
2017-04-20T02:05:02.301Z,1.22
2017-04-20T02:06:11.834Z,1.16
2017-04-20T02:07:21.535Z,1.15
2017-04-20T02:08:30.748Z,1.15
2017-04-20T02:09:40.276Z,1.14
2017-04-20T02:10:49.156Z,1.14
2017-04-20T02:11:58.036Z,1.12
2017-04-20T02:13:07.070Z,1.12
2017-04-20T02:14:16.283Z,1.11
2017-04-20T02:15:25.823Z,1.18
2017-04-20T02:16:35.030Z,1.11
2017-04-20T02:17:44.235Z,1.12
2017-04-20T02:18:53.918Z,1.06
2017-04-20T02:20:02.805Z,1.11
2017-04-20T02:21:11.693Z,1.15
2017-04-20T02:22:20.570Z,1.08
2017-04-20T02:23:29.771Z,1.05
2017-04-20T02:24:38.701Z,1.06
2017-04-20T02:25:47.905Z,1.12
2017-04-20T02:26:57.110Z,1.14
2017-04-20T02:28:06.968Z,1.05
2017-04-20T02:29:16.819Z,1.04
2017-04-20T02:30:26.173Z,1.05
2017-04-20T02:31:35.380Z,1.08
2017-04-20T02:32:44.587Z,1.08
2017-04-20T02:33:53.471Z,1.04
2017-04-20T02:35:03.008Z,1.09
2017-04-20T02:36:12.196Z,1.06
2017-04-20T02:37:21.083Z,1
2017-04-20T02:38:30.294Z,1.08
2017-04-20T02:39:39.501Z,1.02
2017-04-20T02:40:48.382Z,0.98
2017-04-20T02:41:57.434Z,0.94
2017-04-20T02:43:06.639Z,1.04
2017-04-20T02:44:15.846Z,0.96
2017-04-20T02:45:25.376Z,0.93
2017-04-20T02:46:34.716Z,0.86
2017-04-20T02:47:43.652Z,0.88
2017-04-20T02:48:52.926Z,0.91
2017-04-20T02:50:02.458Z,0.9
2017-04-20T02:51:11.339Z,0.87
2017-04-20T02:52:20.871Z,0.94
2017-04-20T02:53:30.484Z,0.9
2017-04-20T02:54:39.364Z,0.87
2017-04-20T02:55:48.894Z,0.94
2017-04-20T02:56:58.101Z,0.94
2017-04-20T02:58:06.979Z,0.9
2017-04-20T02:59:16.670Z,0.93
2017-04-20T03:00:26.853Z,0.9
2017-04-20T03:01:36.713Z,0.8
2017-04-20T03:02:45.602Z,0.79
2017-04-20T03:03:54.807Z,0.78
2017-04-20T03:05:04.017Z,0.72
2017-04-20T03:06:12.899Z,0.76
2017-04-20T03:07:22.110Z,0.69
2017-04-20T03:08:30.994Z,0.78
2017-04-20T03:09:40.523Z,0.83
2017-04-20T03:10:50.031Z,0.73
2017-04-20T03:11:58.915Z,0.78
2017-04-20T03:13:07.804Z,0.75
2017-04-20T03:14:17.669Z,0.8
2017-04-20T03:15:26.902Z,0.75
2017-04-20T03:16:36.262Z,0.73
2017-04-20T03:17:45.794Z,0.75
2017-04-20T03:18:55.000Z,0.65
2017-04-20T03:20:03.887Z,0.68
2017-04-20T03:21:12.768Z,0.7
2017-04-20T03:22:21.795Z,0.68
2017-04-20T03:23:30.679Z,0.61
2017-04-20T03:24:39.558Z,0.65
2017-04-20T03:25:48.438Z,0.66
2017-04-20T03:26:57.645Z,0.62
2017-04-20T03:28:06.998Z,0.53
2017-04-20T03:29:16.208Z,0.55
2017-04-20T03:30:25.749Z,0.6
2017-04-20T03:31:34.954Z,0.57
2017-04-20T03:32:44.166Z,0.55
2017-04-20T03:33:53.435Z,0.58
2017-04-20T03:35:02.647Z,0.57
2017-04-20T03:36:11.872Z,0.57
2017-04-20T03:37:21.077Z,0.5
2017-04-20T03:38:30.932Z,0.53
2017-04-20T03:39:40.288Z,0.5
2017-04-20T03:40:49.492Z,0.49
2017-04-20T03:41:58.379Z,0.47
2017-04-20T03:43:08.023Z,0.51
2017-04-20T03:44:17.565Z,0.53
2017-04-20T03:45:27.283Z,0.49
2017-04-20T03:46:36.932Z,0.46
2017-04-20T03:47:45.948Z,0.39
2017-04-20T03:48:55.035Z,0.42
2017-04-20T03:50:04.671Z,0.44
2017-04-20T03:51:14.026Z,0.51
2017-04-20T03:52:23.232Z,0.44
2017-04-20T03:53:32.438Z,0.51
2017-04-20T03:54:41.642Z,0.51
2017-04-20T03:55:51.173Z,0.44
2017-04-20T03:57:00.157Z,0.41
2017-04-20T03:58:09.363Z,0.42
2017-04-20T03:59:19.559Z,0.47
2017-04-20T04:00:28.445Z,0.39
2017-04-20T04:01:37.985Z,0.44
2017-04-20T04:02:47.515Z,0.39
2017-04-20T04:03:56.728Z,0.41
2017-04-20T04:05:05.939Z,0.36
2017-04-20T04:06:14.822Z,0.33
2017-04-20T04:07:24.032Z,0.36
2017-04-20T04:08:33.394Z,0.38
2017-04-20T04:09:43.261Z,0.41
2017-04-20T04:10:52.146Z,0.41
2017-04-20T04:12:01.027Z,0.36
2017-04-20T04:13:10.245Z,0.39
2017-04-20T04:14:19.129Z,0.39
2017-04-20T04:15:28.663Z,0.31
2017-04-20T04:16:37.545Z,0.35
2017-04-20T04:17:46.424Z,0.41
2017-04-20T04:18:55.628Z,0.36
2017-04-20T04:20:05.263Z,0.28
2017-04-20T04:21:14.476Z,0.38
2017-04-20T04:22:23.368Z,0.28
2017-04-20T04:23:32.576Z,0.33
2017-04-20T04:24:41.778Z,0.28
2017-04-20T04:25:51.461Z,0.33
2017-04-20T04:27:00.341Z,0.36
2017-04-20T04:28:09.551Z,0.35
2017-04-20T04:29:18.433Z,0.33
2017-04-20T04:30:27.642Z,0.33
2017-04-20T04:31:37.329Z,0.42
2017-04-20T04:32:46.538Z,0.39
2017-04-20T04:33:55.419Z,0.35
2017-04-20T04:35:04.304Z,0.33
2017-04-20T04:36:13.513Z,0.39
2017-04-20T04:37:22.544Z,0.35
2017-04-20T04:38:31.426Z,0.35
2017-04-20T04:39:40.633Z,0.35
2017-04-20T04:40:49.839Z,0.36
2017-04-20T04:41:59.054Z,0.28
2017-04-20T04:43:08.202Z,0.35
2017-04-20T04:44:17.078Z,0.41
2017-04-20T04:45:26.288Z,0.35
2017-04-20T04:46:35.509Z,0.36
2017-04-20T04:47:44.796Z,0.39
2017-04-20T04:48:53.729Z,0.36
2017-04-20T04:50:02.935Z,0.44
2017-04-20T04:51:12.264Z,0.5
2017-04-20T04:52:21.148Z,0.42
2017-04-20T04:53:30.042Z,0.41
2017-04-20T04:54:39.402Z,0.41
2017-04-20T04:55:48.281Z,0.5
2017-04-20T04:56:57.160Z,0.55
2017-04-20T04:58:06.701Z,0.5
2017-04-20T04:59:15.586Z,0.51
2017-04-20T05:00:24.944Z,0.57
2017-04-20T05:01:34.147Z,0.53
2017-04-20T05:02:43.030Z,0.6
2017-04-20T05:03:51.920Z,0.6
2017-04-20T05:05:02.097Z,0.6
2017-04-20T05:06:11.456Z,0.61
2017-04-20T05:07:20.340Z,0.58
2017-04-20T05:08:29.547Z,0.7
2017-04-20T05:09:38.774Z,0.66
2017-04-20T05:10:47.982Z,0.73
2017-04-20T05:11:57.264Z,0.76
2017-04-20T05:13:06.470Z,0.66
2017-04-20T05:14:15.349Z,0.79
2017-04-20T05:15:24.557Z,0.69
2017-04-20T05:16:33.447Z,0.8
2017-04-20T05:17:42.984Z,0.9
2017-04-20T05:18:51.871Z,0.84
2017-04-20T05:20:00.752Z,0.9
2017-04-20T05:21:09.961Z,0.91
2017-04-20T05:22:18.845Z,0.97
2017-04-20T05:23:28.863Z,1
2017-04-20T05:24:37.756Z,1.02
2017-04-20T05:25:46.966Z,1.04
2017-04-20T05:26:55.853Z,1.11
2017-04-20T05:28:05.390Z,1.09
2017-04-20T05:29:14.372Z,1.16
2017-04-20T05:30:23.258Z,1.18
2017-04-20T05:31:32.469Z,1.2
2017-04-20T05:32:41.349Z,1.24
2017-04-20T05:33:50.229Z,1.3
2017-04-20T05:34:59.515Z,1.26
2017-04-20T05:36:08.721Z,1.33
2017-04-20T05:37:17.616Z,1.23
2017-04-20T05:38:26.501Z,1.37
2017-04-20T05:39:35.721Z,1.34
2017-04-20T05:40:45.331Z,1.45
2017-04-20T05:41:54.217Z,1.47
2017-04-20T05:43:03.749Z,1.5
2017-04-20T05:44:12.635Z,1.52
2017-04-20T05:45:21.523Z,1.55
2017-04-20T05:46:30.981Z,1.62
2017-04-20T05:47:39.865Z,1.62
2017-04-20T05:48:49.087Z,1.68
2017-04-20T05:49:58.296Z,1.72
2017-04-20T05:51:07.185Z,1.79
2017-04-20T05:52:16.339Z,1.69
2017-04-20T05:53:25.362Z,1.8
2017-04-20T05:54:34.391Z,1.8
2017-04-20T05:55:43.345Z,1.76
2017-04-20T05:56:52.556Z,1.77
2017-04-20T05:58:01.861Z,1.83
2017-04-20T05:59:11.715Z,1.84
2017-04-20T06:00:21.010Z,1.93
2017-04-20T06:01:29.897Z,1.93
2017-04-20T06:02:39.104Z,2.06
2017-04-20T06:03:48.035Z,2.03
2017-04-20T06:04:57.893Z,2.17
2017-04-20T06:06:07.425Z,2.09
2017-04-20T06:07:16.305Z,2.17
2017-04-20T06:08:25.520Z,2.27
2017-04-20T06:09:34.552Z,2.27
2017-04-20T06:10:43.435Z,2.3
2017-04-20T06:11:52.325Z,2.31
2017-04-20T06:13:01.213Z,2.35
2017-04-20T06:14:10.099Z,2.36
2017-04-20T06:15:19.459Z,2.34
2017-04-20T06:16:28.342Z,2.34
2017-04-20T06:17:37.233Z,2.39
2017-04-20T06:18:46.123Z,2.39
2017-04-20T06:19:55.332Z,2.42
2017-04-20T06:21:04.690Z,2.59
2017-04-20T06:22:13.572Z,2.67
2017-04-20T06:23:22.779Z,2.67
2017-04-20T06:24:31.997Z,2.78
2017-04-20T06:25:41.202Z,2.82
2017-04-20T06:26:50.136Z,2.74
2017-04-20T06:27:59.021Z,2.79
2017-04-20T06:29:08.227Z,2.95
2017-04-20T06:30:17.120Z,3
2017-04-20T06:31:26.003Z,2.92
2017-04-20T06:32:35.685Z,2.96
2017-04-20T06:33:44.889Z,2.95
2017-04-20T06:34:53.771Z,3.06
2017-04-20T06:36:02.659Z,3.11
2017-04-20T06:37:11.872Z,3.03
2017-04-20T06:38:21.007Z,3.13
2017-04-20T06:39:30.215Z,3.23
2017-04-20T06:40:39.104Z,3.23
2017-04-20T06:41:47.994Z,3.23
2017-04-20T06:42:56.878Z,3.28
2017-04-20T06:44:05.814Z,3.26
2017-04-20T06:45:15.027Z,3.35
2017-04-20T06:46:24.237Z,3.35
2017-04-20T06:47:33.124Z,3.47
2017-04-20T06:48:42.331Z,3.55
2017-04-20T06:49:51.271Z,3.57
2017-04-20T06:51:00.165Z,3.51
2017-04-20T06:52:09.380Z,3.62
2017-04-20T06:53:18.586Z,3.7
2017-04-20T06:54:27.800Z,3.7
2017-04-20T06:55:37.076Z,3.78
2017-04-20T06:56:45.958Z,3.9
2017-04-20T06:57:54.841Z,3.84
2017-04-20T06:59:03.728Z,3.79
2017-04-20T07:00:12.615Z,3.88
2017-04-20T07:01:21.599Z,3.98
2017-04-20T07:02:30.481Z,3.97
2017-04-20T07:03:39.385Z,3.96
2017-04-20T07:04:48.279Z,4.05
2017-04-20T07:05:57.164Z,4
2017-04-20T07:07:06.901Z,4.08
2017-04-20T07:08:16.111Z,4.12
2017-04-20T07:09:25.650Z,4.22
2017-04-20T07:10:34.863Z,4.23
2017-04-20T07:11:43.767Z,4.32
2017-04-20T07:12:52.801Z,4.41
2017-04-20T07:14:02.010Z,4.55
2017-04-20T07:15:11.220Z,4.62
2017-04-20T07:16:20.106Z,4.63
2017-04-20T07:17:28.997Z,4.73
2017-04-20T07:18:37.985Z,4.7
2017-04-20T07:19:46.877Z,4.75
2017-04-20T07:20:56.089Z,4.77
2017-04-20T07:22:05.836Z,4.73
2017-04-20T07:23:15.050Z,4.77
2017-04-20T07:24:24.391Z,4.89
2017-04-20T07:25:33.414Z,5.02
2017-04-20T07:26:42.312Z,4.97
2017-04-20T07:27:51.926Z,5
2017-04-20T07:29:01.295Z,4.96
2017-04-20T07:30:10.330Z,5.02
2017-04-20T07:31:19.708Z,5.04
2017-04-20T07:32:29.248Z,5.09
2017-04-20T07:33:38.280Z,5.17
2017-04-20T07:34:47.168Z,5.17
2017-04-20T07:35:56.224Z,5.28
2017-04-20T07:37:05.107Z,5.21
2017-04-20T07:38:13.993Z,5.27
2017-04-20T07:39:23.207Z,5.31
2017-04-20T07:40:32.419Z,5.35
2017-04-20T07:41:41.604Z,5.45
2017-04-20T07:42:50.493Z,5.48
2017-04-20T07:43:59.705Z,5.54
2017-04-20T07:45:08.914Z,5.46
2017-04-20T07:46:18.453Z,5.64
2017-04-20T07:47:27.569Z,5.64
2017-04-20T07:48:36.809Z,5.67
2017-04-20T07:49:45.694Z,5.68
2017-04-20T07:50:54.582Z,5.85
2017-04-20T07:52:03.468Z,5.86
2017-04-20T07:53:12.406Z,5.94
2017-04-20T07:54:21.296Z,6
2017-04-20T07:55:30.508Z,6.06
2017-04-20T07:56:39.396Z,6.09
2017-04-20T07:57:48.285Z,6.03
2017-04-20T07:58:57.896Z,6
2017-04-20T08:00:06.787Z,6.09
2017-04-20T08:01:16.003Z,6.22
2017-04-20T08:02:24.898Z,6.33
2017-04-20T08:03:34.111Z,6.31
2017-04-20T08:04:43.107Z,6.31
2017-04-20T08:05:51.999Z,6.27
2017-04-20T08:07:01.214Z,6.38
2017-04-20T08:08:10.753Z,6.34
2017-04-20T08:09:19.972Z,6.37
2017-04-20T08:10:29.413Z,6.52
2017-04-20T08:11:38.305Z,6.49
2017-04-20T08:12:47.519Z,6.67
2017-04-20T08:13:56.409Z,6.51
2017-04-20T08:15:05.324Z,6.52
2017-04-20T08:16:15.279Z,6.62
2017-04-20T08:17:24.919Z,6.66
2017-04-20T08:18:34.766Z,6.67
2017-04-20T08:19:44.094Z,6.69
2017-04-20T08:20:53.806Z,6.84
2017-04-20T08:22:03.592Z,6.79
2017-04-20T08:23:13.187Z,6.88
2017-04-20T08:24:22.107Z,6.89
2017-04-20T08:25:30.995Z,6.8
2017-04-20T08:26:39.884Z,6.85
2017-04-20T08:27:49.305Z,6.84
2017-04-20T08:28:58.193Z,6.84
2017-04-20T08:30:07.405Z,6.98
2017-04-20T08:31:16.622Z,7.06
2017-04-20T08:32:26.053Z,6.98
2017-04-20T08:33:34.994Z,7.02
2017-04-20T08:34:44.531Z,7.03
2017-04-20T08:35:53.426Z,7.02
2017-04-20T08:37:02.428Z,7.13
2017-04-20T08:38:11.376Z,7.16
2017-04-20T08:39:20.820Z,7.07
2017-04-20T08:40:29.824Z,7.17
2017-04-20T08:41:39.042Z,7.1
2017-04-20T08:42:48.116Z,7.07
2017-04-20T08:43:57.101Z,7.25
2017-04-20T08:45:06.129Z,7.17
2017-04-20T08:46:15.028Z,7.49
2017-04-20T08:47:24.275Z,7.42
2017-04-20T08:48:33.974Z,7.31
2017-04-20T08:49:43.188Z,7.31
2017-04-20T08:50:52.606Z,7.49
2017-04-20T08:52:01.818Z,7.46
2017-04-20T08:53:11.036Z,7.6
2017-04-20T08:54:20.247Z,7.53
2017-04-20T08:55:29.458Z,7.53
2017-04-20T08:56:38.504Z,7.61
2017-04-20T08:57:48.366Z,7.69
2017-04-20T08:58:57.258Z,7.71
2017-04-20T09:00:06.144Z,7.82
2017-04-20T09:01:15.038Z,7.92
2017-04-20T09:02:24.084Z,7.92
2017-04-20T09:03:32.972Z,7.75
2017-04-20T09:04:41.863Z,7.74
2017-04-20T09:05:50.753Z,7.89
2017-04-20T09:06:59.648Z,7.89
2017-04-20T09:08:08.895Z,7.85
2017-04-20T09:09:18.114Z,7.79
2017-04-20T09:10:27.332Z,7.87
2017-04-20T09:11:36.223Z,7.93
2017-04-20T09:12:45.443Z,7.86
2017-04-20T09:13:54.385Z,7.92
2017-04-20T09:15:03.277Z,7.92
2017-04-20T09:16:12.168Z,7.98
2017-04-20T09:17:21.057Z,7.87
2017-04-20T09:18:30.274Z,7.95
2017-04-20T09:19:39.647Z,8.05
2017-04-20T09:20:48.538Z,8.1
2017-04-20T09:21:57.753Z,8.11
2017-04-20T09:23:06.962Z,8.08
2017-04-20T09:24:16.177Z,8.11
2017-04-20T09:25:25.169Z,8.08
2017-04-20T09:26:34.056Z,8.11
2017-04-20T09:27:42.946Z,8.18
2017-04-20T09:28:51.835Z,8.22
2017-04-20T09:30:00.723Z,8.37
2017-04-20T09:31:09.987Z,8.4
2017-04-20T09:32:18.876Z,8.47
2017-04-20T09:33:27.763Z,8.58
2017-04-20T09:34:36.982Z,8.61
2017-04-20T09:35:46.193Z,8.66
2017-04-20T09:36:55.239Z,8.71
2017-04-20T09:38:04.449Z,8.44
2017-04-20T09:39:13.669Z,8.56
2017-04-20T09:40:22.893Z,8.63
2017-04-20T09:41:31.785Z,8.61
2017-04-20T09:42:40.875Z,8.53
2017-04-20T09:43:49.841Z,8.55
2017-04-20T09:44:58.727Z,8.65
2017-04-20T09:46:07.957Z,8.7
2017-04-20T09:47:17.175Z,8.73
2017-04-20T09:48:26.539Z,8.76
2017-04-20T09:49:35.749Z,8.91
2017-04-20T09:50:44.639Z,8.95
2017-04-20T09:51:53.531Z,8.84
2017-04-20T09:53:02.425Z,8.87
2017-04-20T09:54:12.025Z,8.96
2017-04-20T09:55:21.361Z,9.11
2017-04-20T09:56:30.250Z,8.98
2017-04-20T09:57:39.134Z,8.96
2017-04-20T09:58:48.020Z,8.87
2017-04-20T09:59:57.394Z,8.91
2017-04-20T10:01:06.489Z,9.08
2017-04-20T10:02:15.417Z,9.1
2017-04-20T10:03:24.959Z,9.11
2017-04-20T10:04:33.991Z,9.1
2017-04-20T10:05:43.261Z,9.24
2017-04-20T10:06:52.582Z,9.08
2017-04-20T10:08:01.563Z,9.11
2017-04-20T10:09:11.218Z,9.02
2017-04-20T10:10:20.113Z,9.11
2017-04-20T10:11:30.026Z,9.23
2017-04-20T10:12:38.924Z,9.33
2017-04-20T10:13:47.814Z,9.35
2017-04-20T10:14:56.701Z,9.48
2017-04-20T10:16:05.916Z,9.53
2017-04-20T10:17:15.131Z,9.56
2017-04-20T10:18:24.017Z,9.89
2017-04-20T10:19:32.912Z,9.86
2017-04-20T10:20:41.798Z,9.79
2017-04-20T10:21:51.011Z,9.79
2017-04-20T10:22:59.975Z,9.72
2017-04-20T10:24:08.865Z,9.78
2017-04-20T10:25:17.751Z,9.68
2017-04-20T10:26:26.640Z,9.58
2017-04-20T10:27:35.529Z,9.56
2017-04-20T10:28:44.516Z,9.65
2017-04-20T10:29:53.747Z,9.61
2017-04-20T10:31:02.641Z,9.75
2017-04-20T10:32:11.859Z,9.66
2017-04-20T10:33:21.408Z,9.83
2017-04-20T10:34:30.674Z,9.78
2017-04-20T10:35:39.566Z,9.65
2017-04-20T10:36:48.459Z,9.74
2017-04-20T10:37:57.673Z,9.89
2017-04-20T10:39:06.563Z,9.87
2017-04-20T10:40:15.703Z,9.89
2017-04-20T10:41:24.595Z,9.97
2017-04-20T10:42:33.809Z,9.86
2017-04-20T10:43:42.694Z,10.04
2017-04-20T10:44:51.592Z,10.01
2017-04-20T10:46:00.478Z,9.84
2017-04-20T10:47:09.693Z,9.79
2017-04-20T10:48:18.586Z,9.64
2017-04-20T10:49:27.479Z,9.74
2017-04-20T10:50:36.376Z,9.66
2017-04-20T10:51:45.412Z,9.65
2017-04-20T10:52:54.311Z,9.58
2017-04-20T10:54:03.200Z,9.61
2017-04-20T10:55:12.104Z,9.69
2017-04-20T10:56:21.320Z,9.72
2017-04-20T10:57:31.012Z,9.99
2017-04-20T10:58:39.906Z,10.08
2017-04-20T10:59:49.114Z,10.14
2017-04-20T11:00:58.007Z,10.17
2017-04-20T11:02:06.902Z,10.11
2017-04-20T11:03:16.696Z,9.96
2017-04-20T11:04:25.590Z,10.2
2017-04-20T11:05:34.801Z,10.3
2017-04-20T11:06:43.692Z,10.4
2017-04-20T11:07:52.582Z,10.44
2017-04-20T11:09:01.623Z,10.4
2017-04-20T11:10:10.512Z,10.34
2017-04-20T11:11:19.406Z,10.42
2017-04-20T11:12:28.295Z,10.56
2017-04-20T11:13:37.188Z,10.59
2017-04-20T11:14:46.278Z,10.34
2017-04-20T11:15:55.492Z,10.32
2017-04-20T11:17:04.713Z,10.11
2017-04-20T11:18:13.600Z,10.07
2017-04-20T11:19:22.487Z,10.23
2017-04-20T11:20:31.383Z,10.47
2017-04-20T11:21:40.281Z,10.59
2017-04-20T11:22:49.171Z,10.61
2017-04-20T11:23:58.101Z,10.64
2017-04-20T11:25:07.648Z,10.61
2017-04-20T11:26:16.596Z,10.76
2017-04-20T11:27:25.537Z,10.78
2017-04-20T11:28:35.019Z,10.81
2017-04-20T11:29:44.240Z,10.85
2017-04-20T11:30:53.239Z,10.89
2017-04-20T11:32:02.949Z,10.88
2017-04-20T11:33:12.164Z,11.02
2017-04-20T11:34:21.379Z,11.02
2017-04-20T11:35:30.601Z,11
2017-04-20T11:36:39.812Z,11.15
2017-04-20T11:37:48.848Z,11.21
2017-04-20T11:38:57.763Z,11.29
2017-04-20T11:40:06.976Z,11.43
2017-04-20T11:41:15.871Z,11.28
2017-04-20T11:42:25.086Z,11.19
2017-04-20T11:43:34.463Z,11.11
2017-04-20T11:44:43.357Z,11.06
2017-04-20T11:45:52.250Z,11.1
2017-04-20T11:47:01.465Z,11.19
2017-04-20T11:48:10.681Z,11.21
2017-04-20T11:49:19.623Z,11.49
2017-04-20T11:50:28.847Z,11.37
2017-04-20T11:51:37.738Z,11.33
2017-04-20T11:52:46.953Z,11.4
2017-04-20T11:54:28.364Z,11.6
2017-04-20T11:55:37.259Z,11.43
2017-04-20T11:56:46.147Z,11.6
2017-04-20T11:57:55.359Z,11.75
2017-04-20T11:59:04.262Z,11.73
2017-04-20T12:00:13.304Z,11.95
2017-04-20T12:01:22.201Z,11.78
2017-04-20T12:02:31.417Z,12.07
2017-04-20T12:03:40.311Z,12.05
2017-04-20T12:04:49.201Z,12.16
2017-04-20T12:05:58.146Z,12.21
2017-04-20T12:07:07.042Z,12.39
2017-04-20T12:08:15.958Z,12.42
2017-04-20T12:09:25.201Z,12.49
2017-04-20T12:10:34.095Z,12.56
2017-04-20T12:11:43.488Z,12.37
2017-04-20T12:12:52.402Z,12.45
2017-04-20T12:14:01.418Z,12.68
2017-04-20T12:15:10.311Z,12.86
2017-04-20T12:16:19.323Z,12.96
2017-04-20T12:17:28.744Z,13.03
2017-04-20T12:18:37.978Z,13.05
2017-04-20T12:19:47.243Z,13.26
2017-04-20T12:20:56.173Z,13.44
2017-04-20T12:22:05.147Z,13.15
2017-04-20T12:23:14.674Z,13.38
2017-04-20T12:24:23.584Z,13.42
2017-04-20T12:25:32.807Z,13.33
2017-04-20T12:26:41.714Z,13.33
2017-04-20T12:27:50.945Z,13.14
2017-04-20T12:28:59.890Z,13.29
2017-04-20T12:30:08.787Z,13.19
2017-04-20T12:31:18.012Z,13.32
2017-04-20T12:32:27.238Z,13.41
2017-04-20T12:33:36.459Z,13.48
2017-04-20T12:34:45.507Z,13.39
2017-04-20T12:35:54.405Z,13.28
2017-04-20T12:37:03.634Z,13.41
2017-04-20T12:38:12.854Z,13.51
2017-04-20T12:39:22.081Z,13.64
2017-04-20T12:40:31.280Z,13.73
2017-04-20T12:41:40.187Z,13.73
2017-04-20T12:42:49.087Z,13.63
2017-04-20T12:43:57.991Z,13.7
2017-04-20T12:45:07.541Z,13.84
2017-04-20T12:46:16.494Z,13.99
2017-04-20T12:47:25.396Z,13.87
2017-04-20T12:48:34.293Z,14.02
2017-04-20T12:49:43.520Z,14.12
2017-04-20T12:50:52.434Z,14.24
2017-04-20T12:52:01.638Z,14.25
2017-04-20T12:53:10.867Z,14.37
2017-04-20T12:54:20.091Z,14.28
2017-04-20T12:55:29.318Z,14.14
2017-04-20T12:56:38.219Z,14.14
2017-04-20T12:57:47.220Z,14.17
2017-04-20T12:58:56.120Z,13.84
2017-04-20T13:00:05.359Z,13.99
2017-04-20T13:01:14.581Z,14.07
2017-04-20T13:02:23.483Z,13.95
2017-04-20T13:03:32.539Z,14.17
2017-04-20T13:04:41.438Z,14.28
2017-04-20T13:05:50.672Z,14.46
2017-04-20T13:06:59.909Z,14.55
2017-04-20T13:08:08.810Z,14.72
2017-04-20T13:09:18.187Z,14.77
2017-04-20T13:10:27.094Z,14.99
2017-04-20T13:11:36.338Z,14.62
2017-04-20T13:12:45.242Z,14.86
2017-04-20T13:13:54.146Z,15.06
2017-04-20T13:15:03.353Z,14.99
2017-04-20T13:16:12.267Z,14.94
2017-04-20T13:17:21.816Z,15.23
2017-04-20T13:18:31.047Z,15.34
2017-04-20T13:19:40.628Z,15.38
2017-04-20T13:20:49.921Z,15.47
2017-04-20T13:21:58.841Z,15.43
2017-04-20T13:23:08.074Z,15.25
2017-04-20T13:24:16.983Z,14.94
2017-04-20T13:25:25.886Z,14.57
2017-04-20T13:26:35.279Z,14.28
2017-04-20T13:27:44.244Z,14.24
2017-04-20T13:28:53.155Z,14.18
2017-04-20T13:30:02.070Z,13.95
2017-04-20T13:31:11.303Z,14
2017-04-20T13:32:20.315Z,14.18
2017-04-20T13:33:29.214Z,14.52
2017-04-20T13:34:38.116Z,14.7
2017-04-20T13:35:47.053Z,14.57
2017-04-20T13:36:55.952Z,14.73
2017-04-20T13:38:04.904Z,14.81
2017-04-20T13:39:14.455Z,14.8
2017-04-20T13:40:23.684Z,14.64
2017-04-20T13:41:33.000Z,14.55
2017-04-20T13:42:42.220Z,14.52
2017-04-20T13:43:51.498Z,14.77
2017-04-20T13:45:00.562Z,14.88
2017-04-20T13:46:09.584Z,14.77
2017-04-20T13:47:18.832Z,14.72
2017-04-20T13:48:27.758Z,14.84
2017-04-20T13:49:37.407Z,14.98
2017-04-20T13:50:46.348Z,14.84
2017-04-20T13:51:55.686Z,14.88
2017-04-20T13:53:05.098Z,14.65
2017-04-20T13:54:14.106Z,14.54
2017-04-20T13:55:23.156Z,14.6
2017-04-20T13:56:32.053Z,14.68
2017-04-20T13:57:40.981Z,14.54
2017-04-20T13:58:49.878Z,14.61
2017-04-20T13:59:58.771Z,14.72
2017-04-20T14:01:08.243Z,14.64
2017-04-20T14:02:17.142Z,14.51
2017-04-20T14:03:26.365Z,14.62
2017-04-20T14:04:35.585Z,14.45
2017-04-20T14:05:44.805Z,14.54
2017-04-20T14:06:54.282Z,14.5
2017-04-20T14:08:03.180Z,14.47
2017-04-20T14:09:12.400Z,14.29
2017-04-20T14:10:21.297Z,14.29
2017-04-20T14:11:30.209Z,14.32
2017-04-20T14:12:40.388Z,14.27
2017-04-20T14:13:49.286Z,14.46
2017-04-20T14:14:58.831Z,14.55
2017-04-20T14:16:07.728Z,14.51
2017-04-20T14:17:16.624Z,14.28
2017-04-20T14:18:25.691Z,14.28
2017-04-20T14:19:34.966Z,14.24
2017-04-20T14:20:43.865Z,14.29
2017-04-20T14:21:53.092Z,14.2
2017-04-20T14:23:01.990Z,14.22
2017-04-20T14:24:11.217Z,14.22
2017-04-20T14:25:20.459Z,14.29
2017-04-20T14:26:29.681Z,14.04
2017-04-20T14:27:38.596Z,13.96
2017-04-20T14:28:47.500Z,13.88
2017-04-20T14:29:56.546Z,14.22
2017-04-20T14:31:05.444Z,14.18
2017-04-20T14:32:14.344Z,14.27
2017-04-20T14:33:23.243Z,14.21
2017-04-20T14:34:32.488Z,14.28
2017-04-20T14:35:41.759Z,14.42
2017-04-20T14:36:50.662Z,14.29
2017-04-20T14:37:59.565Z,14.32
2017-04-20T14:39:08.500Z,14.47
2017-04-20T14:40:17.740Z,14.43
2017-04-20T14:41:26.740Z,14.58
2017-04-20T14:42:35.965Z,14.32
2017-04-20T14:43:45.189Z,14.46
2017-04-20T14:44:54.413Z,14.61
2017-04-20T14:46:03.318Z,14.61
2017-04-20T14:47:12.545Z,14.57
2017-04-20T14:48:21.773Z,14.54
2017-04-20T14:49:31.162Z,14.6
2017-04-20T14:50:40.730Z,14.7
2017-04-20T14:51:50.070Z,14.78
2017-04-20T14:52:59.064Z,15.03
2017-04-20T14:54:08.401Z,14.89
2017-04-20T14:55:17.570Z,14.65
2017-04-20T14:56:26.564Z,14.84
2017-04-20T14:57:35.585Z,14.7
2017-04-20T14:58:44.579Z,14.81
2017-04-20T14:59:53.928Z,14.96
2017-04-20T15:01:03.061Z,15.09
2017-04-20T15:02:12.580Z,15.07
2017-04-20T15:03:21.475Z,14.89
2017-04-20T15:04:30.386Z,14.92
2017-04-20T15:05:39.299Z,14.89
2017-04-20T15:06:48.194Z,14.96
2017-04-20T15:07:57.416Z,15.13
2017-04-20T15:09:06.317Z,14.89
2017-04-20T15:10:15.211Z,14.88
2017-04-20T15:11:24.754Z,14.89
2017-04-20T15:12:33.803Z,14.96
2017-04-20T15:13:43.025Z,15.03
2017-04-20T15:14:51.933Z,14.91
2017-04-20T15:16:00.837Z,14.89